KLHB

Hearne Municipal Airport

Hearne, Texas, USA
METAR KLHB 230455Z AUTO 00000KT 10SM -DZ SCT060 BKN070 BKN110 13/12 A3019 RMK AO2 P0002 T01310117
Observed Flight Rules
Oct-23 @ 04:55 UTC (23 minutes ago) Visual Flight Rules
Visibility Clouds Conditions
10 miles
  • Scattered at 6,000' AGL
  • Broken at 7,000' AGL
  • Broken at 11,000' AGL
  • Light Drizzle
Temperatures Readings Precipitation
Current 13°C / 55°F
Dewpoint 12°C / 54°F
Humidity 94%
Altimeter 30.19" Hg
Pressure 1022 hPa
Elevation 87
Current Rain 0.02
METAR KLHB 230455Z AUTO 00000KT 10SM -DZ SCT060 BKN070 BKN110 13/12 A3019 RMK AO2 P0002 T01310117
Observed Flight Rules
Oct-23 @ 04:55 UTC
(23 minutes ago)
VFR
Clouds
  • Scattered at 6,000' AGL
  • Broken at 7,000' AGL
  • Broken at 11,000' AGL
Conditions
  • Light Drizzle
Temperature Dewpoint
13°C / 55°F 12°C / 54°F
Humidity Altimeter Pressure
94% 30.19" Hg 1022 hPa
Current Rain
0.02